createdAt,value
2022-07-29T00:02:34.229Z,1.12
2022-07-29T00:07:36.541Z,0.95
2022-07-29T00:12:38.744Z,1.12
2022-07-29T00:17:41.179Z,1.20
2022-07-29T00:22:43.405Z,1.27
2022-07-29T00:27:47.139Z,1.23
2022-07-29T00:32:49.591Z,1.20
2022-07-29T00:37:52.108Z,1.62
2022-07-29T00:42:54.366Z,1.02
2022-07-29T00:47:57.137Z,1.27
2022-07-29T00:52:59.881Z,1.00
2022-07-29T00:58:02.234Z,1.50
2022-07-29T01:03:04.702Z,1.55
2022-07-29T01:13:12.822Z,1.40
2022-07-29T01:18:22.125Z,1.12
2022-07-29T01:24:00.640Z,1.30
2022-07-29T01:29:25.551Z,1.10
2022-07-29T01:34:40.745Z,1.02
2022-07-29T01:39:47.056Z,1.37
2022-07-29T01:45:02.961Z,1.45
2022-07-29T01:50:11.020Z,1.62
2022-07-29T01:55:17.434Z,1.00
2022-07-29T02:00:20.838Z,1.45
2022-07-29T02:05:27.997Z,1.75
2022-07-29T02:10:33.617Z,1.55
2022-07-29T02:15:37.405Z,1.33
2022-07-29T02:20:41.103Z,1.25
2022-07-29T02:25:44.410Z,1.20
2022-07-29T02:30:48.873Z,1.42
2022-07-29T02:35:53.083Z,1.40
2022-07-29T02:40:57.760Z,1.70
2022-07-29T02:46:01.484Z,1.87
2022-07-29T02:51:13.372Z,1.52
2022-07-29T02:56:38.605Z,1.12
2022-07-29T03:01:45.345Z,1.27
2022-07-29T03:06:48.646Z,1.20
2022-07-29T03:11:51.209Z,1.65
2022-07-29T03:16:54.029Z,1.15
2022-07-29T03:27:00.673Z,1.60
2022-07-29T03:32:08.281Z,1.00
2022-07-29T03:37:11.016Z,1.25
2022-07-29T03:42:16.092Z,1.45
2022-07-29T03:47:23.250Z,1.35
2022-07-29T03:52:46.249Z,1.20
2022-07-29T03:57:49.086Z,1.55
2022-07-29T04:07:54.332Z,1.50
2022-07-29T04:12:56.477Z,1.60
2022-07-29T04:17:59.626Z,0.90
2022-07-29T04:23:02.137Z,1.45
2022-07-29T04:28:04.619Z,1.58
2022-07-29T04:33:08.173Z,1.67
2022-07-29T04:38:15.533Z,1.25
2022-07-29T04:43:22.388Z,1.25
2022-07-29T04:48:28.690Z,1.23
2022-07-29T04:53:31.242Z,1.60
2022-07-29T04:58:36.094Z,1.20
2022-07-29T05:03:38.331Z,1.73
2022-07-29T05:08:41.945Z,1.20
2022-07-29T05:13:46.341Z,2.00
2022-07-29T05:18:49.449Z,1.67
2022-07-29T05:23:51.608Z,1.60
2022-07-29T05:28:54.875Z,1.48
2022-07-29T05:33:57.241Z,1.77
2022-07-29T05:39:00.800Z,1.30
2022-07-29T05:44:03.134Z,2.33
2022-07-29T05:49:07.733Z,1.42
2022-07-29T05:54:10.391Z,1.95
2022-07-29T05:59:18.228Z,2.17
2022-07-29T06:04:21.147Z,2.50
2022-07-29T06:09:23.947Z,1.50
2022-07-29T06:19:29.994Z,2.12
2022-07-29T06:29:34.233Z,2.17
2022-07-29T06:34:38.611Z,1.80
2022-07-29T06:39:42.871Z,1.92
2022-07-29T06:44:45.562Z,1.67
2022-07-29T06:49:47.746Z,2.08
2022-07-29T06:54:49.911Z,1.80
2022-07-29T06:59:52.063Z,2.10
2022-07-29T07:04:54.248Z,2.33
2022-07-29T07:09:56.464Z,2.17
2022-07-29T07:14:58.572Z,2.50
2022-07-29T07:20:00.784Z,2.20
2022-07-29T07:25:03.060Z,2.22
2022-07-29T07:35:11.849Z,1.90
2022-07-29T07:40:18.771Z,2.80
2022-07-29T07:45:21.287Z,2.42
2022-07-29T07:50:23.531Z,2.40
2022-07-29T08:00:28.698Z,2.67
2022-07-29T08:05:30.974Z,2.53
2022-07-29T08:16:02.510Z,2.67
2022-07-29T08:21:05.247Z,2.65
2022-07-29T08:26:11.911Z,2.78
2022-07-29T08:31:14.615Z,2.83
2022-07-29T08:36:16.811Z,1.85
2022-07-29T08:51:27.249Z,3.23
2022-07-29T08:56:30.810Z,2.78
2022-07-29T09:01:42.399Z,2.12
2022-07-29T09:06:48.702Z,1.50
2022-07-29T09:11:54.500Z,2.37
2022-07-29T09:16:57.883Z,2.28
2022-07-29T09:22:04.253Z,2.42
2022-07-29T09:27:20.216Z,2.05
2022-07-29T09:32:22.391Z,2.65
2022-07-29T09:37:28.949Z,2.78
2022-07-29T09:42:33.484Z,2.83
2022-07-29T09:47:49.660Z,2.72
2022-07-29T09:52:54.176Z,2.28
2022-07-29T09:58:16.779Z,2.92
2022-07-29T10:03:19.609Z,2.72
2022-07-29T10:08:27.669Z,3.30
2022-07-29T10:13:29.907Z,3.10
2022-07-29T10:18:33.178Z,3.25
2022-07-29T10:23:47.003Z,2.78
2022-07-29T10:28:49.705Z,2.80
2022-07-29T10:33:57.611Z,3.58
2022-07-29T10:39:15.976Z,3.00
2022-07-29T10:44:23.183Z,2.80
2022-07-29T10:49:27.925Z,3.03
2022-07-29T10:54:36.186Z,3.15
2022-07-29T10:59:38.345Z,3.35
2022-07-29T11:04:48.601Z,3.65
2022-07-29T11:15:58.266Z,2.30
2022-07-29T11:21:00.739Z,3.33
2022-07-29T11:26:23.714Z,3.60
2022-07-29T11:31:46.251Z,2.72
2022-07-29T11:37:10.473Z,3.53
2022-07-29T11:42:28.328Z,2.97
2022-07-29T11:47:38.423Z,3.30
2022-07-29T11:52:49.989Z,2.78
2022-07-29T11:58:03.990Z,2.80
2022-07-29T12:03:11.987Z,3.22
2022-07-29T12:08:21.761Z,2.58
2022-07-29T12:13:37.768Z,3.08
2022-07-29T12:18:40.495Z,2.50
2022-07-29T12:23:59.449Z,3.37
2022-07-29T12:29:11.475Z,3.00
2022-07-29T12:34:17.978Z,3.15
2022-07-29T12:39:21.126Z,3.17
2022-07-29T12:44:23.421Z,2.60
2022-07-29T12:49:25.614Z,2.60
2022-07-29T12:54:27.833Z,2.72
2022-07-29T12:59:30.059Z,2.37
2022-07-29T13:04:34.155Z,3.33
2022-07-29T13:09:44.671Z,2.60
2022-07-29T13:14:48.579Z,1.87
2022-07-29T13:20:05.882Z,2.85
2022-07-29T13:25:11.485Z,2.67
2022-07-29T13:30:13.918Z,2.10
2022-07-29T13:35:16.666Z,2.08
2022-07-29T13:40:18.860Z,2.15
2022-07-29T13:45:21.013Z,2.17
2022-07-29T13:50:23.318Z,2.47
2022-07-29T13:55:25.842Z,1.60
2022-07-29T14:00:28.808Z,1.52
2022-07-29T14:05:31.512Z,1.98
2022-07-29T14:10:33.660Z,2.65
2022-07-29T14:15:35.796Z,1.90
2022-07-29T14:20:41.612Z,1.90
2022-07-29T14:25:44.536Z,1.73
2022-07-29T14:30:46.890Z,1.33
2022-07-29T14:35:49.270Z,1.83
2022-07-29T14:40:51.417Z,2.72
2022-07-29T14:46:01.304Z,1.80
2022-07-29T14:51:09.761Z,1.50
2022-07-29T14:56:35.480Z,1.98
2022-07-29T15:01:35.790Z,1.40
2022-07-29T15:06:38.860Z,1.30
2022-07-29T15:11:40.993Z,1.20
2022-07-29T15:16:43.863Z,2.37
2022-07-29T15:21:50.153Z,1.58
2022-07-29T15:26:52.448Z,2.10
2022-07-29T15:31:55.743Z,1.73
2022-07-29T15:36:58.390Z,2.00
2022-07-29T15:42:01.431Z,1.42
2022-07-29T15:47:04.064Z,1.48
2022-07-29T15:52:09.483Z,1.62
2022-07-29T15:57:12.009Z,1.40
2022-07-29T16:02:14.141Z,1.85
2022-07-29T16:07:16.825Z,2.20
2022-07-29T16:12:19.339Z,1.75
2022-07-29T16:17:21.582Z,1.92
2022-07-29T16:22:23.724Z,1.37
2022-07-29T16:27:37.749Z,1.20
2022-07-29T16:32:40.367Z,1.20
2022-07-29T16:37:42.535Z,1.25
2022-07-29T16:42:46.906Z,1.37
2022-07-29T16:47:49.934Z,1.55
2022-07-29T16:52:52.219Z,1.65
2022-07-29T16:57:54.462Z,1.35
2022-07-29T17:02:56.684Z,1.35
2022-07-29T17:07:58.721Z,1.30
2022-07-29T17:13:01.827Z,1.27
2022-07-29T17:18:12.528Z,1.90
2022-07-29T17:28:17.403Z,1.35
2022-07-29T17:33:19.558Z,2.00
2022-07-29T17:38:21.766Z,2.10
2022-07-29T17:43:23.934Z,2.15
2022-07-29T17:48:27.442Z,1.65
2022-07-29T17:53:29.670Z,1.42
2022-07-29T17:58:34.238Z,1.10
2022-07-29T18:03:37.204Z,2.35
2022-07-29T18:08:40.910Z,1.65
2022-07-29T18:13:43.171Z,2.17
2022-07-29T18:18:46.031Z,2.22
2022-07-29T18:23:50.681Z,2.67
2022-07-29T18:28:52.881Z,2.00
2022-07-29T18:33:59.686Z,2.67
2022-07-29T18:39:02.221Z,1.75
2022-07-29T18:44:05.059Z,1.77
2022-07-29T18:49:07.708Z,2.95
2022-07-29T18:54:10.590Z,2.92
2022-07-29T18:59:16.787Z,2.62
2022-07-29T19:04:19.217Z,2.42
2022-07-29T19:09:21.357Z,3.00
2022-07-29T19:14:23.578Z,2.95
2022-07-29T19:19:25.861Z,2.85
2022-07-29T19:24:28.663Z,2.45
2022-07-29T19:29:32.384Z,2.67
2022-07-29T19:34:34.563Z,2.92
2022-07-29T19:44:39.108Z,2.30
2022-07-29T19:49:41.283Z,2.75
2022-07-29T19:54:43.410Z,2.47
2022-07-29T19:59:45.782Z,3.12
2022-07-29T20:04:48.560Z,2.33
2022-07-29T20:14:55.461Z,2.40
2022-07-29T20:25:02.358Z,1.92
2022-07-29T20:35:11.886Z,1.85
2022-07-29T20:40:15.172Z,3.00
2022-07-29T20:45:17.803Z,2.00
2022-07-29T20:50:24.238Z,2.60
2022-07-29T20:55:28.130Z,2.22
2022-07-29T21:00:31.154Z,3.17
2022-07-29T21:05:33.282Z,2.95
2022-07-29T21:10:35.506Z,2.72
2022-07-29T21:15:38.123Z,3.30
2022-07-29T21:25:42.783Z,2.65
2022-07-29T21:30:46.472Z,3.03
2022-07-29T21:36:26.574Z,2.85
2022-07-29T21:41:12.557Z,2.90
2022-07-29T21:46:16.966Z,2.75
2022-07-29T21:51:19.226Z,2.85
2022-07-29T21:56:21.410Z,3.47
2022-07-29T22:01:26.882Z,3.22
2022-07-29T22:06:29.175Z,3.75
2022-07-29T22:11:31.858Z,3.55
2022-07-29T22:21:36.330Z,3.15
2022-07-29T22:26:38.986Z,4.15
2022-07-29T22:31:41.121Z,3.40
2022-07-29T22:36:43.353Z,3.92
2022-07-29T22:41:45.509Z,3.60
2022-07-29T22:46:47.726Z,3.47
2022-07-29T22:51:50.067Z,3.53
2022-07-29T22:56:52.422Z,3.30
2022-07-29T23:01:56.030Z,3.60
2022-07-29T23:06:58.471Z,3.20
2022-07-29T23:17:03.213Z,3.83
2022-07-29T23:22:05.745Z,3.08
2022-07-29T23:27:07.928Z,3.67
2022-07-29T23:32:10.105Z,4.30
2022-07-29T23:37:12.325Z,4.18
2022-07-29T23:42:14.444Z,3.10
2022-07-29T23:47:16.562Z,3.30
2022-07-29T23:52:18.899Z,3.65
2022-07-29T23:57:23.979Z,3.08
